Time;durP1;ratioP1;P1;durP2;ratioP2;P2;SDS_P1;SDS_P2;PMS_P1;PMS_P2;Temp;Humidity;BMP_temperature;BMP_pressure;BME280_temperature;BME280_humidity;BME280_pressure;Samples;Min_cycle;Max_cycle;Signal;HPM_P1;HPM_P2
2023/08/05 00:00:45;;;;;;;8.45;3.50;;;;;;;-146.25;100.00;52301.28;2088776;28;20053;-73
2023/08/05 00:01:47;;;;;;;5.90;3.38;;;;;;;-146.25;100.00;52270.88;2087171;28;37633;-72
2023/08/05 00:02:49;;;;;;;11.15;4.00;;;;;;;-146.25;100.00;52285.06;2087025;28;38358;-73
2023/08/05 00:03:50;;;;;;;8.82;3.58;;;;;;;-146.25;100.00;52327.66;2087880;28;34083;-73
2023/08/05 00:04:53;;;;;;;6.82;3.50;;;;;;;-146.25;100.00;52364.13;2087325;28;35537;-72
2023/08/05 00:05:55;;;;;;;8.77;3.30;;;;;;;-146.25;100.00;52349.94;2087511;28;37311;-72
2023/08/05 00:06:56;;;;;;;6.63;3.35;;;;;;;-146.25;100.00;52311.44;2088632;28;20033;-72
2023/08/05 00:07:58;;;;;;;7.22;3.58;;;;;;;-146.25;100.00;52349.94;2087239;28;39057;-72
2023/08/05 00:09:00;;;;;;;7.68;3.50;;;;;;;-146.25;100.00;52343.88;2088005;28;33331;-73
2023/08/05 00:10:01;;;;;;;6.47;3.53;;;;;;;-146.25;100.00;52321.56;2088360;28;20254;-72
2023/08/05 00:11:03;;;;;;;8.05;3.20;;;;;;;-146.25;100.00;52319.53;2086941;28;39546;-73
2023/08/05 00:12:05;;;;;;;6.53;3.47;;;;;;;-146.25;100.00;52303.31;2087356;28;31917;-72
2023/08/05 00:13:10;;;;;;;10.00;4.03;;;;;;;-146.25;100.00;52305.34;2087698;28;32361;-73
2023/08/05 00:14:12;;;;;;;6.68;4.00;;;;;;;-146.25;100.00;52321.56;2088174;28;20096;-71
2023/08/05 00:15:14;;;;;;;9.63;3.90;;;;;;;-146.25;100.00;52303.31;2087585;28;37032;-73
2023/08/05 00:16:16;;;;;;;8.15;3.70;;;;;;;-146.25;100.00;52327.66;2087825;28;37430;-72
2023/08/05 00:17:18;;;;;;;7.72;3.60;;;;;;;-146.25;100.00;52311.44;2087776;28;34308;-73
2023/08/05 00:18:20;;;;;;;10.13;4.43;;;;;;;-146.25;100.00;52309.41;2087320;28;36299;-72
2023/08/05 00:19:21;;;;;;;10.02;4.20;;;;;;;-146.25;100.00;52307.38;2087555;28;36460;-73
2023/08/05 00:20:26;;;;;;;7.03;4.20;;;;;;;-146.25;100.00;52319.53;2088335;28;20114;-73
2023/08/05 00:21:27;;;;;;;10.90;4.28;;;;;;;-146.25;100.00;52317.50;2087309;28;37992;-73
2023/08/05 00:22:29;;;;;;;8.07;4.50;;;;;;;-146.25;100.00;52299.25;2087394;28;36099;-72
2023/08/05 00:23:31;;;;;;;7.25;3.63;;;;;;;-146.25;100.00;52311.44;2087387;28;35620;-73
2023/08/05 00:24:32;;;;;;;8.13;4.18;;;;;;;-146.25;100.00;52331.69;2088219;28;35902;-72
2023/08/05 00:25:37;;;;;;;9.60;4.43;;;;;;;-146.25;100.00;52321.56;2088428;28;20164;-72
2023/08/05 00:26:39;;;;;;;7.65;3.80;;;;;;;-146.25;100.00;52301.28;2087435;28;37636;-70
2023/08/05 00:27:40;;;;;;;7.50;4.03;;;;;;;-146.25;100.00;52341.84;2087324;28;24602;-71
2023/08/05 00:28:43;;;;;;;7.45;4.47;;;;;;;-146.25;100.00;52276.97;2079682;28;20405;-71
2023/08/05 00:29:46;;;;;;;11.57;4.75;;;;;;;-146.25;100.00;52333.72;2087409;28;30154;-71
2023/08/05 00:30:48;;;;;;;6.68;4.10;;;;;;;-146.25;100.00;52362.13;2087941;28;22128;-71
2023/08/05 00:31:52;;;;;;;7.53;4.18;;;;;;;-146.25;100.00;52311.44;2087945;28;20045;-71
2023/08/05 00:32:54;;;;;;;10.60;4.82;;;;;;;-146.25;100.00;52301.28;2086808;28;31003;-71
2023/08/05 00:33:58;;;;;;;9.65;4.90;;;;;;;-146.25;100.00;52299.25;2087357;28;22187;-71
2023/08/05 00:35:00;;;;;;;9.88;4.28;;;;;;;-146.25;100.00;52345.91;2087095;28;20046;-71
2023/08/05 00:36:02;;;;;;;7.40;4.45;;;;;;;-146.25;100.00;52321.56;2087693;28;20485;-71
2023/08/05 00:37:04;;;;;;;8.48;4.35;;;;;;;-146.25;100.00;52311.44;2087011;28;23916;-71
2023/08/05 00:38:06;;;;;;;8.20;5.00;;;;;;;-146.25;100.00;52281.00;2087754;28;22574;-71
2023/08/05 00:39:08;;;;;;;8.52;4.70;;;;;;;-146.25;100.00;52339.81;2087088;28;28768;-71
2023/08/05 00:40:10;;;;;;;9.00;4.88;;;;;;;-146.25;100.00;52295.19;2079137;28;20045;-71
2023/08/05 00:41:11;;;;;;;6.10;4.53;;;;;;;-146.25;100.00;52323.59;2087309;28;27490;-71
2023/08/05 00:42:18;;;;;;;8.18;4.90;;;;;;;-146.25;100.00;52315.47;2087592;28;20823;-71
2023/08/05 00:43:20;;;;;;;9.25;5.00;;;;;;;-146.25;100.00;52337.78;2089196;28;20033;-71
2023/08/05 00:44:23;;;;;;;8.48;4.80;;;;;;;-146.25;100.00;52333.72;2089274;28;33174;-71
2023/08/05 00:45:28;;;;;;;7.80;4.82;;;;;;;-146.25;100.00;52323.59;2089241;28;25739;-71
2023/08/05 00:46:31;;;;;;;9.02;4.97;;;;;;;-146.25;100.00;52299.25;2089483;28;20993;-71
2023/08/05 00:47:38;;;;;;;9.00;5.55;;;;;;;-146.25;100.00;52299.25;2089304;28;20041;-71
2023/08/05 00:48:40;;;;;;;11.40;5.75;;;;;;;-146.25;100.00;52307.38;2097173;28;20111;-71
2023/08/05 00:49:44;;;;;;;7.05;4.25;;;;;;;-146.25;100.00;52262.75;2088804;28;28635;-71
2023/08/05 00:50:46;;;;;;;7.35;4.72;;;;;;;-146.25;100.00;52299.25;2088927;28;34239;-72
2023/08/05 00:51:50;;;;;;;9.23;4.90;;;;;;;-146.25;100.00;52323.59;2088466;28;23641;-72
2023/08/05 00:52:52;;;;;;;8.70;5.30;;;;;;;-146.25;100.00;52341.84;2080642;28;28740;-72
2023/08/05 00:53:53;;;;;;;8.80;4.88;;;;;;;-146.25;100.00;52315.47;2088381;28;30820;-72
2023/08/05 00:54:55;;;;;;;10.10;4.90;;;;;;;-146.25;100.00;52283.03;2089266;28;31038;-71
2023/08/05 00:55:57;;;;;;;9.25;5.28;;;;;;;-146.25;100.00;52301.28;2079657;28;34981;-72
2023/08/05 00:56:59;;;;;;;13.07;5.30;;;;;;;-146.25;100.00;52313.44;2080666;28;25209;-72
2023/08/05 00:58:01;;;;;;;9.10;5.18;;;;;;;-146.25;100.00;52299.25;2089025;28;28127;-72
2023/08/05 00:59:03;;;;;;;9.52;5.45;;;;;;;-146.25;100.00;52307.38;2080065;28;29770;-72
2023/08/05 01:00:06;;;;;;;8.95;5.25;;;;;;;-146.25;100.00;52291.16;2080222;28;25562;-72
2023/08/05 01:01:08;;;;;;;7.63;5.50;;;;;;;-146.25;100.00;52313.44;2088313;28;27737;-72
2023/08/05 01:02:12;;;;;;;8.68;5.38;;;;;;;-146.25;100.00;52299.25;2080798;28;20109;-72
2023/08/05 01:03:14;;;;;;;9.63;5.38;;;;;;;-146.25;100.00;52258.72;2088188;28;28196;-72
2023/08/05 01:04:16;;;;;;;7.78;4.90;;;;;;;-146.25;100.00;52323.59;2088245;28;31977;-72
2023/08/05 01:05:20;;;;;;;8.98;5.57;;;;;;;-146.25;100.00;52295.19;2088614;28;20076;-72
2023/08/05 01:06:25;;;;;;;9.18;5.50;;;;;;;-146.25;100.00;52285.06;2087627;28;34699;-72
2023/08/05 01:07:27;;;;;;;12.13;7.20;;;;;;;-146.25;100.00;52291.16;2088563;28;26409;-73
2023/08/05 01:08:32;;;;;;;9.57;6.70;;;;;;;-146.25;100.00;52335.75;2088547;28;25384;-72
2023/08/05 01:09:36;;;;;;;12.27;7.03;;;;;;;-146.25;100.00;52313.44;2088236;28;28800;-72
2023/08/05 01:10:39;;;;;;;8.35;6.10;;;;;;;-146.25;100.00;52291.16;2080676;28;23752;-71
2023/08/05 01:11:41;;;;;;;15.75;7.25;;;;;;;-146.25;100.00;52291.16;2080580;28;28658;-71
2023/08/05 01:12:43;;;;;;;13.43;7.22;;;;;;;-146.25;100.00;52303.31;2096272;28;20056;-71
2023/08/05 01:13:48;;;;;;;12.38;6.57;;;;;;;-146.25;100.00;52313.44;2088888;28;30000;-72
2023/08/05 01:14:50;;;;;;;11.77;6.20;;;;;;;-146.25;100.00;52331.69;2088478;28;27454;-71
2023/08/05 01:15:54;;;;;;;16.30;6.97;;;;;;;-146.25;100.00;52293.19;2089212;28;27614;-71
2023/08/05 01:16:56;;;;;;;16.17;7.32;;;;;;;-146.25;100.00;52291.16;2088827;28;28245;-71
2023/08/05 01:17:58;;;;;;;13.45;7.35;;;;;;;-146.25;100.00;52339.81;2088493;28;30431;-71
2023/08/05 01:19:03;;;;;;;14.85;6.57;;;;;;;-146.25;100.00;52272.91;2080062;28;27042;-70
2023/08/05 01:20:10;;;;;;;11.65;6.43;;;;;;;-146.25;100.00;52323.59;2088451;28;24244;-70
2023/08/05 01:21:49;;;;;;;10.45;5.90;;;;;;;-146.25;100.00;52343.88;2080104;28;20173;-70
2023/08/05 01:22:56;;;;;;;8.80;5.65;;;;;;;-146.25;100.00;52305.34;2073579;28;25349;-72
2023/08/05 01:24:38;;;;;;;14.32;6.70;;;;;;;-146.25;100.00;52335.75;2088398;28;32858;-72
2023/08/05 01:25:41;;;;;;;10.20;5.93;;;;;;;-146.25;100.00;52285.06;2087876;28;26423;-72
2023/08/05 01:26:44;;;;;;;10.93;6.63;;;;;;;-146.25;100.00;52301.28;2088490;28;26391;-72
2023/08/05 01:27:47;;;;;;;9.68;5.78;;;;;;;-146.25;100.00;52285.06;2088771;28;27942;-72
2023/08/05 01:28:49;;;;;;;13.20;6.55;;;;;;;-146.25;100.00;52319.53;2089077;28;29341;-72
2023/08/05 01:29:51;;;;;;;15.85;6.93;;;;;;;-146.25;100.00;52305.34;2088452;28;24952;-72
2023/08/05 01:30:55;;;;;;;9.50;6.03;;;;;;;-146.25;100.00;52283.03;2088878;28;26669;-72
2023/08/05 01:31:58;;;;;;;9.15;5.50;;;;;;;-146.25;100.00;52325.63;2088268;28;20092;-72
2023/08/05 01:33:03;;;;;;;9.85;5.80;;;;;;;-146.25;100.00;52356.03;2089136;28;23112;-72
2023/08/05 01:34:06;;;;;;;11.00;6.55;;;;;;;-146.25;100.00;52297.22;2080621;28;30251;-72
2023/08/05 01:35:09;;;;;;;11.27;7.00;;;;;;;-146.25;100.00;52293.19;2087855;28;29182;-72
2023/08/05 01:36:21;;;;;;;12.55;7.38;;;;;;;-146.25;100.00;52360.09;2080192;28;29456;-72
2023/08/05 01:37:23;;;;;;;11.57;6.63;;;;;;;-146.25;100.00;52305.34;2081629;28;23628;-72
2023/08/05 01:38:24;;;;;;;11.43;6.18;;;;;;;-146.25;100.00;52287.09;2087814;28;34549;-72
2023/08/05 01:39:26;;;;;;;11.48;7.03;;;;;;;-146.25;100.00;52303.31;2089466;28;20022;-72
2023/08/05 01:40:32;;;;;;;18.23;8.25;;;;;;;-146.25;100.00;52309.41;2089308;28;20045;-72
2023/08/05 01:41:36;;;;;;;12.18;7.55;;;;;;;-146.25;100.00;52329.66;2088354;28;20982;-72
2023/08/05 01:42:38;;;;;;;12.98;7.72;;;;;;;-146.25;100.00;52293.19;2088176;28;25856;-73
2023/08/05 01:43:39;;;;;;;13.73;7.78;;;;;;;-146.25;100.00;52283.03;2088182;28;21032;-73
2023/08/05 01:44:41;;;;;;;14.50;6.90;;;;;;;-146.25;100.00;52317.50;2088532;28;21534;-72
2023/08/05 01:45:43;;;;;;;13.52;7.47;;;;;;;-146.25;100.00;52321.56;2088192;28;20914;-71
2023/08/05 01:46:48;;;;;;;12.07;7.35;;;;;;;-146.25;100.00;52317.50;2088329;28;20873;-71
2023/08/05 01:47:50;;;;;;;10.20;6.50;;;;;;;-146.25;100.00;52303.31;2088661;28;28388;-71
2023/08/05 01:48:51;;;;;;;14.13;7.63;;;;;;;-146.25;100.00;52307.38;2096451;28;27594;-71
2023/08/05 01:49:54;;;;;;;15.05;6.80;;;;;;;-146.25;100.00;52299.25;2089029;28;20033;-71
2023/08/05 01:50:57;;;;;;;14.50;6.82;;;;;;;-146.25;100.00;52250.59;2088412;28;20182;-71
2023/08/05 01:51:59;;;;;;;14.20;8.15;;;;;;;-146.25;100.00;52329.66;2088267;28;20080;-71
2023/08/05 01:53:01;;;;;;;16.23;7.47;;;;;;;-146.25;100.00;52293.19;2088183;28;26582;-71
2023/08/05 01:54:03;;;;;;;14.07;7.38;;;;;;;-146.25;100.00;52299.25;2087815;28;22998;-71
2023/08/05 01:55:05;;;;;;;14.98;7.63;;;;;;;-146.25;100.00;52274.94;2088641;28;26508;-71
2023/08/05 01:56:07;;;;;;;19.02;8.63;;;;;;;-146.25;100.00;52343.88;2088086;28;24380;-71
2023/08/05 01:57:08;;;;;;;14.88;8.45;;;;;;;-146.25;100.00;52311.44;2079853;28;20176;-71
2023/08/05 01:58:10;;;;;;;14.35;7.72;;;;;;;-146.25;100.00;52301.28;2080102;28;22796;-71
2023/08/05 01:59:12;;;;;;;13.50;7.85;;;;;;;-146.25;100.00;52323.59;2080088;28;20050;-71
2023/08/05 02:00:14;;;;;;;11.10;6.88;;;;;;;-146.25;100.00;52327.66;2079796;28;20094;-71
2023/08/05 02:01:16;;;;;;;13.90;7.88;;;;;;;-146.25;100.00;52299.25;2087501;28;43460;-70
2023/08/05 02:02:19;;;;;;;16.58;7.65;;;;;;;-146.25;100.00;52345.91;2088941;28;20081;-71
2023/08/05 02:03:21;;;;;;;18.88;8.32;;;;;;;-146.25;100.00;52325.63;2088277;28;20181;-70
2023/08/05 02:04:26;;;;;;;14.13;7.45;;;;;;;-146.25;100.00;52305.34;2076156;28;27900;-71
2023/08/05 02:05:27;;;;;;;14.70;8.40;;;;;;;-146.25;100.00;52301.28;2080035;28;25872;-71
2023/08/05 02:06:32;;;;;;;11.38;7.40;;;;;;;-146.25;100.00;52303.31;2088081;28;20089;-71
2023/08/05 02:07:33;;;;;;;11.20;7.88;;;;;;;-146.25;100.00;52291.16;2079648;28;20034;-71
2023/08/05 02:08:35;;;;;;;19.25;9.20;;;;;;;-146.25;100.00;52299.25;2079457;28;27251;-71
2023/08/05 02:09:37;;;;;;;15.48;8.70;;;;;;;-146.25;100.00;52297.22;2087438;28;35174;-71
2023/08/05 02:10:42;;;;;;;16.05;8.55;;;;;;;-146.25;100.00;52303.31;2087766;28;20045;-71
2023/08/05 02:11:44;;;;;;;13.82;8.07;;;;;;;-146.25;100.00;52313.44;2087816;28;23256;-71
2023/08/05 02:12:46;;;;;;;11.80;7.03;;;;;;;-146.25;100.00;52274.94;2080104;28;20041;-71
2023/08/05 02:13:48;;;;;;;19.95;8.45;;;;;;;-146.25;100.00;52327.66;2080039;28;20141;-71
2023/08/05 02:14:50;;;;;;;19.25;8.27;;;;;;;-146.25;100.00;52313.44;2088449;28;20989;-71
2023/08/05 02:15:52;;;;;;;12.25;7.22;;;;;;;-146.25;100.00;52311.44;2087653;28;27591;-71
2023/08/05 02:16:54;;;;;;;17.40;8.98;;;;;;;-146.25;100.00;52266.81;2088437;28;20037;-71
2023/08/05 02:17:56;;;;;;;20.08;9.43;;;;;;;-146.25;100.00;52293.19;2080096;28;27493;-71
2023/08/05 02:18:58;;;;;;;17.35;8.65;;;;;;;-146.25;100.00;52289.13;2080105;28;20846;-71
2023/08/05 02:20:00;;;;;;;14.57;8.57;;;;;;;-146.25;100.00;52295.19;2079421;28;26001;-71
2023/08/05 02:21:02;;;;;;;18.33;8.98;;;;;;;-146.25;100.00;52266.81;2088292;28;20076;-70
2023/08/05 02:22:09;;;;;;;17.63;8.95;;;;;;;-146.25;100.00;52315.47;2087618;28;20896;-70
2023/08/05 02:23:11;;;;;;;16.55;8.80;;;;;;;-146.25;100.00;52321.56;2080646;28;28275;-71
2023/08/05 02:24:13;;;;;;;18.40;8.68;;;;;;;-146.25;100.00;52274.94;2080671;28;20176;-71
2023/08/05 02:25:15;;;;;;;11.43;6.95;;;;;;;-146.25;100.00;52295.19;2080203;28;29609;-71
2023/08/05 02:26:17;;;;;;;15.45;8.43;;;;;;;-146.25;100.00;52295.19;2080212;28;31369;-71
2023/08/05 02:27:19;;;;;;;15.65;7.82;;;;;;;-146.25;100.00;52297.22;2079723;28;23393;-70
2023/08/05 02:28:21;;;;;;;15.75;8.20;;;;;;;-146.25;100.00;52283.03;2079639;28;31879;-70
2023/08/05 02:29:23;;;;;;;15.07;8.18;;;;;;;-146.25;100.00;52293.19;2071394;28;26481;-70
2023/08/05 02:30:24;;;;;;;14.60;7.90;;;;;;;-146.25;100.00;52248.56;2071742;28;38546;-70
2023/08/05 02:31:26;;;;;;;15.73;7.82;;;;;;;-146.25;100.00;52325.63;2088124;28;26854;-70
2023/08/05 02:32:28;;;;;;;12.50;7.93;;;;;;;-146.25;100.00;52291.16;2079708;28;36139;-71
2023/08/05 02:33:30;;;;;;;16.63;8.80;;;;;;;-146.25;100.00;52305.34;2080209;28;31710;-71
2023/08/05 02:34:32;;;;;;;15.73;9.05;;;;;;;-146.25;100.00;52331.69;2087519;28;27211;-70
2023/08/05 02:35:33;;;;;;;17.90;9.07;;;;;;;-146.25;100.00;52303.31;2087459;28;25991;-70
2023/08/05 02:36:35;;;;;;;14.93;8.70;;;;;;;-146.25;100.00;52327.66;2087676;28;27834;-71
2023/08/05 02:37:37;;;;;;;14.10;8.25;;;;;;;-146.25;100.00;52297.22;2079819;28;30433;-71
2023/08/05 02:38:42;;;;;;;14.75;8.18;;;;;;;-146.25;100.00;52291.16;2079847;28;25711;-71
2023/08/05 02:39:44;;;;;;;16.50;8.38;;;;;;;-146.25;100.00;52303.31;2080544;28;25910;-71
2023/08/05 02:40:46;;;;;;;14.02;8.98;;;;;;;-146.25;100.00;52319.53;2079823;28;20050;-71
2023/08/05 02:41:48;;;;;;;16.50;9.30;;;;;;;-146.25;100.00;52264.78;2079767;28;27094;-71
2023/08/05 02:42:50;;;;;;;14.60;8.10;;;;;;;-146.25;100.00;52335.75;2080084;28;28422;-71
2023/08/05 02:43:53;;;;;;;14.25;8.98;;;;;;;-146.25;100.00;52347.91;2080601;28;20038;-71
2023/08/05 02:44:55;;;;;;;12.98;8.27;;;;;;;-146.25;100.00;52283.03;2079806;28;20054;-71
2023/08/05 02:45:59;;;;;;;17.20;8.65;;;;;;;-146.25;100.00;52289.13;2080580;28;26600;-71
2023/08/05 02:47:01;;;;;;;10.43;6.90;;;;;;;-146.25;100.00;52319.53;2087910;28;20130;-71
2023/08/05 02:48:03;;;;;;;14.60;8.52;;;;;;;-146.25;100.00;52329.66;2087563;28;31399;-70
2023/08/05 02:49:08;;;;;;;17.83;9.00;;;;;;;-146.25;100.00;52295.19;2087387;28;20049;-71
2023/08/05 02:50:10;;;;;;;13.18;7.68;;;;;;;-146.25;100.00;52325.63;2087036;28;24525;-71
2023/08/05 02:51:12;;;;;;;12.63;7.43;;;;;;;-146.25;100.00;52305.34;2079327;28;20136;-70
2023/08/05 02:52:13;;;;;;;18.00;8.93;;;;;;;-146.25;100.00;52317.50;2079185;28;28502;-71
2023/08/05 02:53:16;;;;;;;14.10;8.07;;;;;;;-146.25;100.00;52323.59;2080393;28;20037;-71
2023/08/05 02:54:18;;;;;;;17.48;9.38;;;;;;;-146.25;100.00;52293.19;2080074;28;31369;-70
2023/08/05 02:55:19;;;;;;;11.40;7.78;;;;;;;-146.25;100.00;52313.44;2070780;28;27980;-70
2023/08/05 02:56:21;;;;;;;14.68;8.10;;;;;;;-146.25;100.00;52319.53;2072062;28;20112;-70
2023/08/05 02:57:23;;;;;;;15.38;8.13;;;;;;;-146.25;100.00;52295.19;2079888;28;30831;-70
2023/08/05 02:58:26;;;;;;;17.13;9.02;;;;;;;-146.25;100.00;52297.22;2080859;28;20034;-70
2023/08/05 02:59:28;;;;;;;13.02;8.13;;;;;;;-146.25;100.00;52313.44;2079734;28;32650;-69
2023/08/05 03:00:35;;;;;;;14.48;8.27;;;;;;;-146.25;100.00;52266.81;2080777;28;20029;-70
2023/08/05 03:01:37;;;;;;;14.43;8.23;;;;;;;-146.25;100.00;52283.03;2080282;28;27768;-78
2023/08/05 03:02:40;;;;;;;15.85;8.10;;;;;;;-146.25;100.00;52307.38;2079790;28;24264;-72
2023/08/05 03:03:43;;;;;;;15.32;9.05;;;;;;;-146.25;100.00;52307.38;2071586;28;20058;-72
2023/08/05 03:04:45;;;;;;;14.18;9.18;;;;;;;-146.25;100.00;52297.22;2082355;28;28760;-71
2023/08/05 03:05:46;;;;;;;15.57;9.13;;;;;;;-146.25;100.00;52339.81;2088219;28;20943;-71
2023/08/05 03:06:49;;;;;;;15.05;8.80;;;;;;;-146.25;100.00;52311.44;2086993;28;20048;-71
2023/08/05 03:07:51;;;;;;;16.70;9.27;;;;;;;-146.25;100.00;52339.81;2079265;28;30994;-71
2023/08/05 03:08:52;;;;;;;14.90;8.68;;;;;;;-146.25;100.00;52323.59;2087946;28;20096;-71
2023/08/05 03:09:57;;;;;;;17.60;9.30;;;;;;;-146.25;100.00;52309.41;2087545;28;27191;-70
2023/08/05 03:11:00;;;;;;;20.77;10.80;;;;;;;-146.25;100.00;52337.78;2088505;28;20144;-71
2023/08/05 03:12:07;;;;;;;16.25;9.00;;;;;;;-146.25;100.00;52305.34;2087548;28;20184;-70
2023/08/05 03:13:09;;;;;;;17.58;9.52;;;;;;;-146.25;100.00;52321.56;2080198;28;20038;-70
2023/08/05 03:14:12;;;;;;;18.70;8.50;;;;;;;-146.25;100.00;52311.44;2079593;28;20053;-71
2023/08/05 03:15:13;;;;;;;13.90;8.95;;;;;;;-146.25;100.00;52339.81;2087700;28;24837;-72
2023/08/05 03:16:15;;;;;;;15.55;8.98;;;;;;;-146.25;100.00;52325.63;2087144;28;26390;-73
2023/08/05 03:17:27;;;;;;;14.88;8.85;;;;;;;-146.25;100.00;52303.31;2080823;28;20166;-72
2023/08/05 03:18:31;;;;;;;18.30;10.10;;;;;;;-146.25;100.00;52287.09;2079995;28;20046;-73
2023/08/05 03:19:33;;;;;;;22.80;11.80;;;;;;;-146.25;100.00;52329.66;2080002;28;20084;-73
2023/08/05 03:20:36;;;;;;;19.98;11.10;;;;;;;-146.25;100.00;52319.53;2087579;28;20033;-72
2023/08/05 03:21:43;;;;;;;15.88;8.95;;;;;;;-146.25;100.00;52307.38;2087531;28;20048;-70
2023/08/05 03:22:45;;;;;;;20.02;11.57;;;;;;;-146.25;100.00;52323.59;2079995;28;20049;-71
2023/08/05 03:23:47;;;;;;;20.42;10.38;;;;;;;-146.25;100.00;52317.50;2088006;28;20089;-71
2023/08/05 03:24:49;;;;;;;17.63;10.35;;;;;;;-146.25;100.00;52311.44;2088347;28;22519;-71
2023/08/05 03:25:51;;;;;;;21.95;11.85;;;;;;;-146.25;100.00;52315.47;2087652;28;20178;-71
2023/08/05 03:26:53;;;;;;;18.17;9.60;;;;;;;-146.25;100.00;52341.84;2087821;28;21065;-71
2023/08/05 03:27:55;;;;;;;22.50;11.77;;;;;;;-146.25;100.00;52287.09;2087552;28;21032;-71
2023/08/05 03:28:58;;;;;;;19.70;10.07;;;;;;;-146.25;100.00;52362.13;2087979;28;20823;-72
2023/08/05 03:30:00;;;;;;;17.92;9.70;;;;;;;-146.25;100.00;52287.09;2079524;28;20041;-71
2023/08/05 03:31:02;;;;;;;18.95;11.15;;;;;;;-146.25;100.00;52313.44;2079802;28;20120;-72
2023/08/05 03:32:06;;;;;;;18.92;10.43;;;;;;;-146.25;100.00;52315.47;2087936;28;20034;-71
2023/08/05 03:33:11;;;;;;;21.13;11.32;;;;;;;-146.25;100.00;52297.22;2079541;28;20049;-71
2023/08/05 03:34:14;;;;;;;24.05;11.90;;;;;;;-146.25;100.00;52339.81;2080258;28;20068;-71
2023/08/05 03:35:19;;;;;;;16.50;10.25;;;;;;;-146.25;100.00;52305.34;2080533;28;20086;-71
2023/08/05 03:36:21;;;;;;;19.02;10.60;;;;;;;-146.25;100.00;52315.47;2078865;28;20061;-71
2023/08/05 03:37:22;;;;;;;21.20;11.88;;;;;;;-146.25;100.00;52319.53;2079030;28;32439;-71
2023/08/05 03:38:24;;;;;;;24.40;12.70;;;;;;;-146.25;100.00;52297.22;2087311;28;20119;-71
2023/08/05 03:39:26;;;;;;;21.80;11.00;;;;;;;-146.25;100.00;52327.66;2087754;28;30413;-72
2023/08/05 03:40:28;;;;;;;24.55;10.98;;;;;;;-146.25;100.00;52305.34;2079451;28;20054;-71
2023/08/05 03:41:29;;;;;;;24.83;12.82;;;;;;;-146.25;100.00;52325.63;2084129;28;27218;-71
2023/08/05 03:42:32;;;;;;;18.05;11.45;;;;;;;-146.25;100.00;52291.16;2095829;28;20041;-72
2023/08/05 03:43:34;;;;;;;21.02;11.95;;;;;;;-146.25;100.00;52335.75;2095237;28;37825;-72
2023/08/05 03:44:37;;;;;;;20.90;11.55;;;;;;;-146.25;100.00;52329.66;2087718;28;20902;-72
2023/08/05 03:45:38;;;;;;;19.13;10.75;;;;;;;-146.25;100.00;52270.88;2087527;28;23006;-71
2023/08/05 03:46:40;;;;;;;21.55;12.38;;;;;;;-146.25;100.00;52319.53;2088047;28;20827;-71
2023/08/05 03:47:42;;;;;;;22.23;12.27;;;;;;;-146.25;100.00;52327.66;2088028;28;20033;-71
2023/08/05 03:48:44;;;;;;;23.13;11.65;;;;;;;-146.25;100.00;52291.16;2087577;28;20054;-71
2023/08/05 03:49:46;;;;;;;18.85;11.18;;;;;;;-146.25;100.00;52307.38;2088176;28;27911;-72
2023/08/05 03:50:48;;;;;;;21.42;11.85;;;;;;;-146.25;100.00;52325.63;2088005;28;27296;-70
2023/08/05 03:51:50;;;;;;;24.50;12.25;;;;;;;-146.25;100.00;52311.44;2087140;28;33162;-70
2023/08/05 03:52:53;;;;;;;16.83;10.27;;;;;;;-146.25;100.00;52329.66;2087426;28;21045;-71
2023/08/05 03:53:56;;;;;;;19.85;11.68;;;;;;;-146.25;100.00;52293.19;2088079;28;20041;-71
2023/08/05 03:54:59;;;;;;;20.83;12.10;;;;;;;-146.25;100.00;52301.28;2079553;28;20042;-71
2023/08/05 03:56:01;;;;;;;27.75;11.98;;;;;;;-146.25;100.00;52313.44;2079697;28;27521;-71
2023/08/05 03:57:08;;;;;;;20.45;11.82;;;;;;;-146.25;100.00;52281.00;2087820;28;20244;-71
2023/08/05 03:58:12;;;;;;;16.90;9.82;;;;;;;-146.25;100.00;52272.91;2088194;28;20136;-71
2023/08/05 03:59:14;;;;;;;18.55;10.57;;;;;;;-146.25;100.00;52360.09;2088427;28;20168;-70
2023/08/05 04:00:17;;;;;;;22.83;12.32;;;;;;;-146.25;100.00;52309.41;2088331;28;20143;-71
2023/08/05 04:01:22;;;;;;;20.33;11.40;;;;;;;-146.25;100.00;52291.16;2087538;28;20172;-70
2023/08/05 04:02:25;;;;;;;18.52;10.48;;;;;;;-146.25;100.00;52333.72;2087656;28;20159;-70
2023/08/05 04:03:28;;;;;;;14.90;9.55;;;;;;;-146.25;100.00;52301.28;2089158;28;23298;-72
2023/08/05 04:04:30;;;;;;;16.73;9.98;;;;;;;-146.25;100.00;52331.69;2091770;28;20096;-72
2023/08/05 04:05:34;;;;;;;20.05;10.52;;;;;;;-146.25;100.00;52303.31;2087278;28;27148;-71
2023/08/05 04:06:39;;;;;;;21.52;11.43;;;;;;;-146.25;100.00;52319.53;2079851;28;20045;-72
2023/08/05 04:07:42;;;;;;;13.85;9.40;;;;;;;-146.25;100.00;52333.72;2079922;28;20080;-71
2023/08/05 04:08:48;;;;;;;15.98;9.52;;;;;;;-146.25;100.00;52313.44;2080057;28;20093;-70
2023/08/05 04:09:51;;;;;;;18.30;10.43;;;;;;;-146.25;100.00;52303.31;2087525;28;26153;-71
2023/08/05 04:10:53;;;;;;;14.68;9.27;;;;;;;-146.25;100.00;52319.53;2087624;28;26906;-71
2023/08/05 04:11:57;;;;;;;14.77;9.10;;;;;;;-146.25;100.00;52319.53;2079178;28;20039;-70
2023/08/05 04:13:03;;;;;;;15.68;9.48;;;;;;;-146.25;100.00;52270.88;2087562;28;20890;-69
2023/08/05 04:14:07;;;;;;;15.88;10.43;;;;;;;-146.25;100.00;52331.69;2087546;28;20169;-69
2023/08/05 04:15:13;;;;;;;19.23;9.77;;;;;;;-146.25;100.00;52287.09;2087530;28;20088;-69
2023/08/05 04:16:21;;;;;;;21.23;10.85;;;;;;;-146.25;100.00;52341.84;2079613;28;20049;-71
2023/08/05 04:17:26;;;;;;;14.80;9.85;;;;;;;-146.25;100.00;52321.56;2088283;28;20148;-71
2023/08/05 04:18:31;;;;;;;16.00;9.85;;;;;;;-146.25;100.00;52351.97;2088843;28;32559;-70
2023/08/05 04:19:34;;;;;;;16.45;10.27;;;;;;;-146.25;100.00;52293.19;2089297;28;20050;-70
2023/08/05 04:20:38;;;;;;;15.27;9.55;;;;;;;-146.25;100.00;52295.19;2088593;28;27425;-70
2023/08/05 04:21:46;;;;;;;17.77;9.73;;;;;;;-146.25;100.00;52291.16;2088994;28;29653;-70
2023/08/05 04:22:49;;;;;;;16.08;9.80;;;;;;;-146.25;100.00;52317.50;2088519;28;20137;-69
2023/08/05 04:23:52;;;;;;;15.07;9.02;;;;;;;-146.25;100.00;52319.53;2087901;28;35463;-70
2023/08/05 04:24:53;;;;;;;12.90;8.52;;;;;;;-146.25;100.00;52333.72;2089038;28;22942;-70
2023/08/05 04:25:58;;;;;;;13.52;9.40;;;;;;;-146.25;100.00;52323.59;2089332;28;39387;-70
2023/08/05 04:27:01;;;;;;;13.48;8.15;;;;;;;-146.25;100.00;52305.34;2088902;28;33093;-70
2023/08/05 04:28:03;;;;;;;12.40;7.47;;;;;;;-146.25;100.00;52360.09;2089206;28;36848;-70
2023/08/05 04:29:06;;;;;;;13.70;8.82;;;;;;;-146.25;100.00;52337.78;2089695;28;20047;-70
2023/08/05 04:30:13;;;;;;;9.18;6.90;;;;;;;-146.25;100.00;52317.50;2089336;28;20172;-70
2023/08/05 04:31:15;;;;;;;11.68;8.13;;;;;;;-146.25;100.00;52327.66;2088248;28;38320;-70
2023/08/05 04:32:19;;;;;;;12.07;7.10;;;;;;;-146.25;100.00;52303.31;2089545;28;34901;-70
2023/08/05 04:33:21;;;;;;;8.48;6.50;;;;;;;-146.25;100.00;52329.66;2088545;28;37020;-70
2023/08/05 04:34:22;;;;;;;14.93;7.00;;;;;;;-146.25;100.00;52368.19;2089971;28;20041;-70
2023/08/05 04:35:24;;;;;;;8.45;5.82;;;;;;;-146.25;100.00;52337.78;2088501;28;39466;-69
2023/08/05 04:36:26;;;;;;;8.98;5.95;;;;;;;-146.25;100.00;52358.06;2088942;28;36078;-70
2023/08/05 04:37:28;;;;;;;7.07;5.55;;;;;;;-146.25;100.00;52349.94;2088686;28;35134;-70
2023/08/05 04:38:29;;;;;;;8.45;5.40;;;;;;;-146.25;100.00;52356.03;2088981;28;39098;-70
2023/08/05 04:39:31;;;;;;;9.15;5.38;;;;;;;-146.25;100.00;52335.75;2089313;28;20801;-71
2023/08/05 04:40:33;;;;;;;8.80;4.68;;;;;;;-146.25;100.00;52354.00;2089587;28;20088;-71
2023/08/05 04:41:39;;;;;;;8.50;4.85;;;;;;;-146.25;98.12;52307.38;2088815;28;37407;-71
2023/08/05 04:42:41;;;;;;;7.20;4.53;;;;;;;-146.25;96.90;52341.84;2088747;28;36817;-71
2023/08/05 04:43:43;;;;;;;6.78;4.32;;;;;;;-146.25;94.57;52354.00;2088360;28;34257;-71